createdAt,value
2018-02-21T00:01:06.047Z,15.03
2018-02-21T00:03:33.633Z,15.10
2018-02-21T00:06:01.213Z,15.50
2018-02-21T00:08:28.839Z,15.67
2018-02-21T00:10:56.431Z,15.60
2018-02-21T00:13:24.015Z,14.77
2018-02-21T00:15:51.669Z,15.43
2018-02-21T00:18:19.717Z,14.00
2018-02-21T00:20:47.374Z,13.50
2018-02-21T00:23:15.218Z,14.27
2018-02-21T00:25:42.780Z,14.77
2018-02-21T00:28:10.358Z,15.30
2018-02-21T00:30:38.038Z,16.07
2018-02-21T00:33:05.606Z,16.50
2018-02-21T00:35:33.173Z,16.13
2018-02-21T00:38:00.773Z,15.80
2018-02-21T00:40:28.337Z,15.70
2018-02-21T00:42:55.919Z,15.80
2018-02-21T00:45:23.554Z,15.17
2018-02-21T00:47:51.194Z,15.93
2018-02-21T00:50:18.781Z,16.33
2018-02-21T00:52:46.396Z,15.67
2018-02-21T00:55:14.000Z,15.43
2018-02-21T00:57:41.571Z,16.63
2018-02-21T01:00:09.502Z,15.33
2018-02-21T01:02:37.181Z,16.10
2018-02-21T01:05:04.813Z,16.13
2018-02-21T01:07:32.490Z,15.50
2018-02-21T01:10:00.124Z,16.33
2018-02-21T01:12:27.754Z,15.60
2018-02-21T01:14:55.386Z,15.93
2018-02-21T01:17:22.963Z,17.47
2018-02-21T01:19:50.521Z,15.67
2018-02-21T01:22:18.206Z,15.37
2018-02-21T01:24:45.762Z,16.47
2018-02-21T01:27:13.387Z,16.73
2018-02-21T01:29:41.091Z,16.20
2018-02-21T01:32:08.652Z,15.53
2018-02-21T01:34:36.208Z,14.90
2018-02-21T01:37:04.104Z,16.10
2018-02-21T01:39:31.677Z,16.67
2018-02-21T01:41:59.257Z,15.90
2018-02-21T01:44:26.863Z,15.27
2018-02-21T01:46:54.413Z,17.47
2018-02-21T01:49:21.971Z,16.20
2018-02-21T01:51:49.598Z,15.87
2018-02-21T01:54:17.162Z,16.30
2018-02-21T01:56:44.801Z,15.37
2018-02-21T01:59:12.433Z,15.47
2018-02-21T02:01:40.000Z,15.93
2018-02-21T02:04:09.116Z,15.40
2018-02-21T02:06:37.062Z,16.20
2018-02-21T02:09:04.709Z,15.47
2018-02-21T02:11:32.286Z,15.87
2018-02-21T02:13:59.905Z,16.53
2018-02-21T02:16:27.471Z,16.87
2018-02-21T02:18:55.043Z,16.37
2018-02-21T02:21:22.948Z,17.70
2018-02-21T02:23:50.880Z,18.13
2018-02-21T02:26:18.454Z,18.17
2018-02-21T02:28:46.080Z,17.60
2018-02-21T02:31:13.663Z,16.93
2018-02-21T02:33:41.240Z,17.80
2018-02-21T02:36:08.869Z,17.77
2018-02-21T02:38:41.156Z,17.47
2018-02-21T02:41:08.777Z,18.17
2018-02-21T02:43:36.374Z,17.60
2018-02-21T02:46:03.945Z,19.63
2018-02-21T02:48:31.563Z,17.67
2018-02-21T02:50:59.150Z,17.53
2018-02-21T02:53:26.717Z,17.80
2018-02-21T02:55:54.874Z,17.97
2018-02-21T02:58:22.459Z,18.53
2018-02-21T03:00:50.019Z,16.10
2018-02-21T03:03:17.637Z,17.27
2018-02-21T03:05:45.316Z,16.50
2018-02-21T03:08:12.891Z,17.13
2018-02-21T03:10:40.604Z,16.47
2018-02-21T03:13:08.181Z,16.47
2018-02-21T03:15:35.757Z,17.47
2018-02-21T03:18:03.364Z,16.37
2018-02-21T03:20:30.980Z,17.10
2018-02-21T03:22:58.544Z,16.63
2018-02-21T03:25:26.157Z,16.40
2018-02-21T03:27:53.733Z,17.20
2018-02-21T03:30:21.296Z,16.57
2018-02-21T03:32:49.851Z,17.03
2018-02-21T03:35:17.424Z,17.97
2018-02-21T03:37:45.069Z,17.20
2018-02-21T03:40:12.715Z,16.30
2018-02-21T03:42:40.293Z,15.77
2018-02-21T03:45:07.864Z,16.10
2018-02-21T03:47:35.646Z,15.97
2018-02-21T03:50:03.226Z,15.73
2018-02-21T03:52:30.830Z,16.37
2018-02-21T03:54:58.480Z,15.27
2018-02-21T03:57:26.110Z,17.03
2018-02-21T03:59:53.693Z,16.53
2018-02-21T04:02:21.624Z,17.20
2018-02-21T04:04:49.216Z,16.23
2018-02-21T04:07:17.863Z,16.80
2018-02-21T04:09:52.447Z,16.87
2018-02-21T04:12:20.016Z,15.33
2018-02-21T04:14:47.646Z,16.40
2018-02-21T04:17:15.288Z,17.07
2018-02-21T04:19:43.922Z,16.40
2018-02-21T04:22:11.485Z,17.63
2018-02-21T04:24:41.278Z,16.57
2018-02-21T04:27:08.840Z,16.83
2018-02-21T04:29:39.539Z,17.20
2018-02-21T04:32:07.194Z,17.13
2018-02-21T04:34:34.780Z,17.07
2018-02-21T04:37:02.356Z,17.13
2018-02-21T04:39:30.010Z,16.83
2018-02-21T04:41:57.578Z,17.00
2018-02-21T04:44:25.159Z,16.70
2018-02-21T04:46:52.784Z,16.60
2018-02-21T04:49:20.376Z,15.93
2018-02-21T04:51:47.965Z,16.93
2018-02-21T04:54:30.677Z,17.13
2018-02-21T04:57:04.145Z,17.23
2018-02-21T04:59:37.369Z,16.53
2018-02-21T05:02:04.980Z,15.90
2018-02-21T05:04:32.609Z,15.73
2018-02-21T05:07:00.294Z,16.93
2018-02-21T05:09:28.289Z,16.53
2018-02-21T05:11:55.857Z,15.53
2018-02-21T05:14:23.493Z,16.70
2018-02-21T05:16:51.049Z,15.80
2018-02-21T05:19:18.613Z,16.77
2018-02-21T05:21:46.243Z,15.90
2018-02-21T05:24:13.813Z,16.13
2018-02-21T05:26:41.404Z,15.47
2018-02-21T05:29:10.428Z,16.83
2018-02-21T05:31:38.022Z,15.67
2018-02-21T05:34:05.601Z,16.47
2018-02-21T05:36:33.524Z,18.17
2018-02-21T05:39:01.090Z,17.27
2018-02-21T05:41:28.658Z,18.97
2018-02-21T05:43:56.327Z,17.30
2018-02-21T05:46:23.914Z,16.93
2018-02-21T05:48:51.503Z,17.30
2018-02-21T05:51:19.343Z,17.23
2018-02-21T05:53:46.968Z,16.53
2018-02-21T05:56:14.544Z,17.07
2018-02-21T05:58:42.275Z,16.70
2018-02-21T06:01:09.856Z,16.77
2018-02-21T06:03:37.455Z,18.50
2018-02-21T06:06:05.132Z,17.87
2018-02-21T06:08:33.468Z,18.83
2018-02-21T06:11:01.218Z,17.70
2018-02-21T06:13:28.831Z,18.07
2018-02-21T06:15:56.412Z,20.20
2018-02-21T06:18:24.028Z,17.83
2018-02-21T06:20:51.656Z,19.03
2018-02-21T06:23:19.294Z,19.33
2018-02-21T06:25:46.860Z,20.10
2018-02-21T06:28:14.974Z,19.83
2018-02-21T06:30:42.542Z,19.97
2018-02-21T06:33:10.144Z,19.47
2018-02-21T06:35:37.820Z,18.97
2018-02-21T06:38:05.450Z,19.37
2018-02-21T06:40:33.586Z,20.43
2018-02-21T06:43:01.200Z,20.10
2018-02-21T06:45:28.843Z,20.00
2018-02-21T06:47:56.415Z,20.67
2018-02-21T06:50:24.032Z,21.03
2018-02-21T06:52:51.605Z,21.73
2018-02-21T06:55:19.169Z,19.50
2018-02-21T06:57:47.030Z,20.27
2018-02-21T07:00:14.617Z,22.80
2018-02-21T07:02:42.237Z,21.77
2018-02-21T07:05:09.845Z,21.77
2018-02-21T07:07:38.202Z,22.43
2018-02-21T07:10:05.788Z,22.93
2018-02-21T07:12:33.545Z,22.87
2018-02-21T07:15:01.150Z,23.07
2018-02-21T07:17:28.709Z,21.90
2018-02-21T07:19:56.399Z,23.80
2018-02-21T07:22:23.974Z,24.10
2018-02-21T07:24:52.111Z,21.60
2018-02-21T07:27:19.994Z,22.97
2018-02-21T07:29:47.552Z,23.43
2018-02-21T07:32:15.125Z,20.87
2018-02-21T07:34:43.005Z,22.00
2018-02-21T07:37:10.899Z,22.60
2018-02-21T07:39:38.483Z,25.10
2018-02-21T07:42:06.118Z,28.93
2018-02-21T07:44:33.739Z,24.13
2018-02-21T07:47:01.313Z,27.73
2018-02-21T07:49:28.948Z,25.00
2018-02-21T07:51:56.617Z,25.20
2018-02-21T07:54:24.176Z,22.20
2018-02-21T07:56:51.870Z,24.13
2018-02-21T07:59:19.453Z,25.40
2018-02-21T08:01:47.050Z,23.17
2018-02-21T08:04:14.709Z,21.33
2018-02-21T08:06:42.321Z,23.60
2018-02-21T08:09:09.892Z,24.83
2018-02-21T08:11:37.724Z,24.20
2018-02-21T08:14:06.253Z,22.30
2018-02-21T08:16:33.838Z,24.23
2018-02-21T08:19:01.461Z,21.07
2018-02-21T08:21:29.065Z,22.10
2018-02-21T08:23:56.647Z,22.97
2018-02-21T08:26:24.256Z,22.63
2018-02-21T08:28:51.826Z,21.73
2018-02-21T08:31:19.393Z,21.23
2018-02-21T08:33:47.018Z,21.83
2018-02-21T08:36:14.631Z,22.33
2018-02-21T08:38:42.238Z,22.07
2018-02-21T08:41:09.867Z,22.03
2018-02-21T08:43:38.313Z,21.77
2018-02-21T08:46:05.877Z,23.23
2018-02-21T08:48:33.513Z,22.67
2018-02-21T08:51:01.082Z,22.67
2018-02-21T08:53:28.649Z,22.63
2018-02-21T08:55:56.555Z,21.70
2018-02-21T08:58:24.206Z,21.70
2018-02-21T09:00:51.830Z,21.43
2018-02-21T09:03:19.474Z,23.00
2018-02-21T09:05:47.037Z,22.33
2018-02-21T09:08:14.662Z,23.77
2018-02-21T09:10:42.289Z,22.33
2018-02-21T09:13:09.862Z,23.33
2018-02-21T09:15:37.507Z,21.90
2018-02-21T09:18:05.138Z,23.73
2018-02-21T09:20:32.730Z,21.50
2018-02-21T09:23:00.367Z,32.80
2018-02-21T09:25:28.251Z,21.50
2018-02-21T09:27:55.870Z,20.57
2018-02-21T09:30:23.440Z,19.40
2018-02-21T09:32:51.068Z,19.20
2018-02-21T09:35:18.646Z,20.73
2018-02-21T09:37:46.218Z,20.43
2018-02-21T09:40:13.853Z,20.33
2018-02-21T09:42:41.429Z,21.33
2018-02-21T09:45:09.007Z,20.73
2018-02-21T09:47:36.738Z,18.47
2018-02-21T09:50:04.336Z,18.63
2018-02-21T09:52:31.897Z,17.97
2018-02-21T09:54:59.546Z,17.57
2018-02-21T09:57:27.116Z,20.33
2018-02-21T09:59:54.691Z,20.93
2018-02-21T10:02:22.382Z,16.10
2018-02-21T10:04:50.069Z,16.67
2018-02-21T10:07:17.636Z,15.47
2018-02-21T10:09:45.349Z,15.50
2018-02-21T10:12:12.948Z,16.13
2018-02-21T10:14:40.532Z,16.53
2018-02-21T10:17:08.301Z,18.63
2018-02-21T10:19:35.865Z,20.93
2018-02-21T10:22:03.424Z,17.63
2018-02-21T10:24:31.046Z,17.73
2018-02-21T10:26:58.745Z,21.83
2018-02-21T10:29:26.314Z,26.70
2018-02-21T10:31:53.951Z,21.70
2018-02-21T10:34:21.586Z,19.40
2018-02-21T10:36:49.144Z,19.63
2018-02-21T10:39:16.758Z,18.57
2018-02-21T10:41:44.381Z,19.63
2018-02-21T10:44:11.992Z,18.77
2018-02-21T10:46:39.612Z,19.57
2018-02-21T10:49:07.177Z,19.63
2018-02-21T10:51:34.765Z,19.20
2018-02-21T10:54:02.381Z,18.40
2018-02-21T10:56:29.943Z,17.60
2018-02-21T10:58:57.610Z,18.80
2018-02-21T11:01:27.670Z,17.57
2018-02-21T11:03:55.297Z,16.70
2018-02-21T11:06:23.492Z,17.30
2018-02-21T11:08:51.123Z,16.43
2018-02-21T11:11:18.700Z,16.67
2018-02-21T11:13:46.282Z,13.67
2018-02-21T11:16:13.921Z,15.47
2018-02-21T11:18:41.566Z,16.67
2018-02-21T11:21:09.158Z,15.93
2018-02-21T11:23:36.787Z,15.47
2018-02-21T11:26:04.399Z,17.63
2018-02-21T11:28:31.972Z,16.23
2018-02-21T11:30:59.693Z,21.80
2018-02-21T11:33:27.895Z,18.37
2018-02-21T11:35:55.476Z,19.77
2018-02-21T11:38:23.122Z,19.33
2018-02-21T11:40:50.709Z,17.43
2018-02-21T11:43:18.295Z,16.93
2018-02-21T11:45:45.955Z,16.93
2018-02-21T11:48:13.514Z,16.80
2018-02-21T11:50:41.097Z,18.80
2018-02-21T11:53:08.734Z,17.53
2018-02-21T11:55:36.306Z,17.67
2018-02-21T11:58:03.906Z,19.80
2018-02-21T12:00:31.558Z,15.47
2018-02-21T12:02:59.151Z,17.97
2018-02-21T12:05:26.721Z,17.57
2018-02-21T12:07:54.407Z,18.77
2018-02-21T12:10:22.044Z,18.63
2018-02-21T12:12:49.612Z,16.03
2018-02-21T12:15:17.297Z,17.33
2018-02-21T12:17:44.862Z,17.37
2018-02-21T12:20:12.645Z,16.53
2018-02-21T12:22:40.276Z,17.23
2018-02-21T12:25:07.953Z,16.20
2018-02-21T12:27:35.602Z,20.07
2018-02-21T12:30:03.267Z,19.00
2018-02-21T12:32:32.352Z,18.93
2018-02-21T12:35:00.004Z,18.60
2018-02-21T12:37:27.697Z,19.03
2018-02-21T12:39:59.072Z,18.90
2018-02-21T12:42:26.655Z,18.07
2018-02-21T12:44:54.392Z,18.33
2018-02-21T12:47:21.954Z,19.23
2018-02-21T12:49:49.595Z,18.83
2018-02-21T12:52:17.223Z,17.47
2018-02-21T12:54:44.805Z,17.13
2018-02-21T12:57:12.458Z,17.80
2018-02-21T12:59:40.820Z,16.67
2018-02-21T13:02:08.506Z,18.23
2018-02-21T13:04:36.093Z,18.13
2018-02-21T13:07:03.755Z,21.17
2018-02-21T13:09:31.325Z,22.00
2018-02-21T13:11:59.090Z,19.37
2018-02-21T13:14:26.705Z,22.73
2018-02-21T13:16:54.282Z,22.20
2018-02-21T13:19:21.842Z,20.77
2018-02-21T13:21:49.698Z,22.07
2018-02-21T13:24:17.274Z,22.97
2018-02-21T13:26:44.868Z,24.70
2018-02-21T13:29:12.494Z,23.20
2018-02-21T13:31:40.172Z,22.77
2018-02-21T13:34:07.854Z,24.17
2018-02-21T13:36:35.485Z,29.67
2018-02-21T13:39:03.251Z,20.57
2018-02-21T13:41:30.819Z,22.73
2018-02-21T13:43:58.470Z,20.47
2018-02-21T13:46:26.060Z,20.57
2018-02-21T13:48:53.637Z,20.37
2018-02-21T13:51:21.245Z,92.67
2018-02-21T13:53:48.845Z,28.90
2018-02-21T13:56:16.397Z,21.60
2018-02-21T13:58:44.026Z,20.87
2018-02-21T14:01:11.658Z,20.80
2018-02-21T14:03:39.233Z,21.30
2018-02-21T14:06:07.249Z,22.73
2018-02-21T14:08:34.829Z,22.37
2018-02-21T14:11:02.404Z,20.07
2018-02-21T14:13:30.090Z,19.63
2018-02-21T14:15:57.654Z,20.33
2018-02-21T14:18:25.278Z,19.30
2018-02-21T14:20:53.015Z,19.03
2018-02-21T14:23:20.675Z,21.40
2018-02-21T14:25:48.297Z,21.57
2018-02-21T14:28:15.984Z,20.07
2018-02-21T14:30:43.555Z,18.83
2018-02-21T14:33:11.129Z,18.80
2018-02-21T14:35:38.753Z,19.10
2018-02-21T14:38:06.326Z,19.13
2018-02-21T14:40:33.902Z,21.40
2018-02-21T14:43:01.533Z,18.47
2018-02-21T14:45:29.107Z,18.53
2018-02-21T14:47:56.672Z,17.90
2018-02-21T14:50:24.334Z,19.70
2018-02-21T14:52:52.680Z,20.10
2018-02-21T14:55:20.293Z,22.07
2018-02-21T14:57:47.914Z,22.30
2018-02-21T15:00:15.516Z,20.47
2018-02-21T15:02:43.085Z,20.90
2018-02-21T15:05:10.714Z,23.07
2018-02-21T15:07:38.285Z,25.90
2018-02-21T15:10:05.849Z,20.63
2018-02-21T15:12:33.798Z,20.87
2018-02-21T15:15:01.389Z,21.43
2018-02-21T15:17:28.994Z,21.37
2018-02-21T15:19:56.614Z,22.20
2018-02-21T15:22:24.282Z,24.07
2018-02-21T15:24:51.978Z,22.47
2018-02-21T15:27:19.628Z,21.57
2018-02-21T15:29:47.210Z,25.03
2018-02-21T15:32:14.799Z,23.13
2018-02-21T15:34:42.442Z,23.73
2018-02-21T15:37:10.026Z,23.20
2018-02-21T15:39:37.609Z,21.10
2018-02-21T15:42:05.432Z,24.67
2018-02-21T15:44:33.004Z,21.53
2018-02-21T15:47:00.586Z,25.67
2018-02-21T15:49:28.227Z,25.40
2018-02-21T15:51:55.811Z,26.37
2018-02-21T15:54:23.381Z,25.73
2018-02-21T15:56:50.996Z,25.33
2018-02-21T15:59:18.566Z,24.83
2018-02-21T16:01:46.124Z,23.97
2018-02-21T16:04:13.777Z,24.93
2018-02-21T16:06:41.350Z,25.90
2018-02-21T16:09:08.978Z,29.13
2018-02-21T16:11:37.264Z,30.63
2018-02-21T16:14:04.966Z,27.20
2018-02-21T16:16:32.532Z,25.90
2018-02-21T16:19:00.461Z,29.43
2018-02-21T16:21:28.026Z,29.87
2018-02-21T16:23:55.613Z,32.93
2018-02-21T16:26:23.462Z,27.40
2018-02-21T16:28:51.043Z,26.70
2018-02-21T16:31:18.622Z,24.57
2018-02-21T16:33:46.330Z,26.07
2018-02-21T16:36:13.899Z,26.97
2018-02-21T16:38:41.843Z,28.60
2018-02-21T16:41:09.484Z,27.43
2018-02-21T16:43:37.241Z,25.03
2018-02-21T16:46:04.819Z,24.53
2018-02-21T16:48:32.445Z,33.27
2018-02-21T16:51:00.739Z,31.40
2018-02-21T16:53:28.314Z,31.73
2018-02-21T16:55:55.932Z,27.00
2018-02-21T16:58:23.505Z,25.73
2018-02-21T17:00:51.076Z,27.30
2018-02-21T17:03:18.751Z,26.47
2018-02-21T17:05:46.306Z,22.90
2018-02-21T17:08:13.958Z,24.20
2018-02-21T17:10:41.655Z,25.37
2018-02-21T17:13:09.448Z,34.60
2018-02-21T17:15:37.012Z,30.83
2018-02-21T17:18:04.686Z,32.10
2018-02-21T17:20:32.332Z,29.37
2018-02-21T17:22:59.907Z,28.20
2018-02-21T17:25:27.536Z,29.77
2018-02-21T17:27:55.605Z,26.60
2018-02-21T17:30:23.952Z,25.73
2018-02-21T17:32:51.590Z,27.93
2018-02-21T17:35:19.153Z,25.10
2018-02-21T17:37:46.722Z,24.93
2018-02-21T17:40:14.375Z,22.33
2018-02-21T17:42:41.950Z,22.27
2018-02-21T17:45:09.517Z,23.63
2018-02-21T17:47:37.219Z,22.87
2018-02-21T17:50:04.792Z,26.90
2018-02-21T17:52:32.385Z,20.80
2018-02-21T17:55:00.034Z,23.07
2018-02-21T17:57:27.630Z,22.20
2018-02-21T17:59:55.197Z,25.80
2018-02-21T18:02:23.397Z,22.57
2018-02-21T18:04:50.995Z,26.27
2018-02-21T18:07:18.579Z,26.13
2018-02-21T18:09:46.224Z,25.87
2018-02-21T18:12:13.814Z,23.50
2018-02-21T18:14:41.391Z,20.77
2018-02-21T18:17:09.037Z,23.77
2018-02-21T18:19:36.620Z,22.40
2018-02-21T18:22:05.031Z,22.97
2018-02-21T18:24:32.701Z,24.17
2018-02-21T18:27:00.294Z,22.90
2018-02-21T18:29:28.213Z,21.83
2018-02-21T18:31:55.934Z,23.97
2018-02-21T18:34:23.493Z,26.10
2018-02-21T18:36:51.088Z,23.67
2018-02-21T18:39:18.776Z,25.17
2018-02-21T18:41:46.394Z,23.53
2018-02-21T18:44:13.975Z,24.33
2018-02-21T18:46:41.630Z,28.03
2018-02-21T18:49:09.204Z,24.00
2018-02-21T18:51:36.778Z,23.87
2018-02-21T18:54:04.388Z,23.70
2018-02-21T18:56:32.880Z,28.67
2018-02-21T18:59:00.448Z,27.43
2018-02-21T19:01:28.065Z,26.77
2018-02-21T19:03:55.657Z,23.83
2018-02-21T19:06:23.236Z,25.07
2018-02-21T19:08:51.733Z,26.37
2018-02-21T19:11:19.316Z,34.13
2018-02-21T19:13:46.888Z,26.87
2018-02-21T19:16:15.334Z,26.67
2018-02-21T19:18:42.909Z,25.57
2018-02-21T19:21:10.550Z,27.73
2018-02-21T19:23:38.180Z,24.70
2018-02-21T19:26:05.822Z,25.43
2018-02-21T19:28:33.400Z,25.10
2018-02-21T19:31:01.238Z,23.80
2018-02-21T19:33:29.626Z,22.63
2018-02-21T19:35:57.194Z,23.13
2018-02-21T19:38:25.116Z,21.27
2018-02-21T19:40:52.688Z,27.13
2018-02-21T19:43:20.302Z,23.80
2018-02-21T19:45:48.002Z,26.90
2018-02-21T19:48:15.589Z,21.17
2018-02-21T19:50:43.164Z,22.37
2018-02-21T19:53:10.781Z,20.77
2018-02-21T19:55:38.336Z,23.33
2018-02-21T19:58:05.922Z,23.97
2018-02-21T20:00:33.606Z,26.77
2018-02-21T20:03:01.378Z,26.77
2018-02-21T20:05:28.955Z,23.00
2018-02-21T20:07:56.590Z,24.63
2018-02-21T20:10:24.144Z,24.17
2018-02-21T20:12:51.713Z,23.10
2018-02-21T20:15:19.726Z,23.17
2018-02-21T20:17:47.342Z,20.63
2018-02-21T20:20:14.938Z,23.97
2018-02-21T20:22:42.641Z,23.07
2018-02-21T20:25:10.200Z,21.13
2018-02-21T20:27:37.795Z,20.37
2018-02-21T20:30:05.436Z,22.67
2018-02-21T20:32:33.046Z,22.07
2018-02-21T20:35:00.667Z,22.07
2018-02-21T20:37:28.285Z,21.07
2018-02-21T20:39:55.876Z,20.63
2018-02-21T20:42:23.461Z,21.77
2018-02-21T20:44:51.079Z,22.33
2018-02-21T20:47:18.730Z,22.00
2018-02-21T20:49:46.310Z,22.80
2018-02-21T20:52:14.033Z,22.50
2018-02-21T20:54:41.636Z,22.00
2018-02-21T20:57:09.201Z,21.43
2018-02-21T20:59:36.929Z,23.23
2018-02-21T21:02:04.512Z,23.17
2018-02-21T21:04:32.166Z,21.83
2018-02-21T21:06:59.820Z,22.63
2018-02-21T21:09:27.380Z,22.90
2018-02-21T21:11:55.020Z,20.63
2018-02-21T21:14:22.711Z,22.40
2018-02-21T21:16:50.346Z,23.57
2018-02-21T21:19:17.922Z,23.53
2018-02-21T21:21:45.546Z,23.07
2018-02-21T21:24:13.142Z,23.13
2018-02-21T21:26:40.776Z,22.60
2018-02-21T21:29:08.400Z,21.70
2018-02-21T21:31:35.968Z,21.63
2018-02-21T21:34:03.762Z,22.13
2018-02-21T21:36:31.408Z,20.73
2018-02-21T21:38:59.050Z,22.47
2018-02-21T21:41:26.679Z,21.27
2018-02-21T21:43:54.304Z,23.57
2018-02-21T21:46:21.876Z,19.40
2018-02-21T21:48:49.448Z,20.57
2018-02-21T21:51:17.082Z,20.23
2018-02-21T21:53:44.678Z,18.63
2018-02-21T21:56:12.276Z,20.07
2018-02-21T21:58:39.908Z,21.00
2018-02-21T22:01:07.705Z,19.90
2018-02-21T22:03:35.280Z,21.30
2018-02-21T22:06:03.457Z,20.10
2018-02-21T22:08:31.017Z,21.53
2018-02-21T22:10:58.582Z,22.10
2018-02-21T22:13:26.249Z,21.17
2018-02-21T22:15:53.801Z,23.00
2018-02-21T22:18:21.380Z,22.27
2018-02-21T22:20:49.049Z,20.77
2018-02-21T22:23:16.624Z,19.67
2018-02-21T22:25:44.196Z,19.23
2018-02-21T22:28:13.503Z,20.27
2018-02-21T22:30:41.076Z,20.63
2018-02-21T22:33:08.658Z,19.83
2018-02-21T22:35:36.587Z,18.50
2018-02-21T22:38:04.162Z,20.27
2018-02-21T22:40:31.734Z,20.40
2018-02-21T22:42:59.420Z,20.07
2018-02-21T22:45:26.998Z,21.10
2018-02-21T22:47:54.630Z,21.13
2018-02-21T22:50:22.249Z,20.80
2018-02-21T22:52:49.830Z,20.33
2018-02-21T22:55:17.426Z,17.97
2018-02-21T22:57:45.083Z,17.30
2018-02-21T23:00:12.782Z,18.43
2018-02-21T23:02:40.369Z,17.80
2018-02-21T23:05:08.038Z,18.70
2018-02-21T23:07:35.596Z,18.73
2018-02-21T23:10:03.246Z,18.27
2018-02-21T23:12:30.874Z,17.70
2018-02-21T23:14:58.439Z,16.67
2018-02-21T23:17:25.996Z,16.40
2018-02-21T23:19:53.600Z,18.03
2018-02-21T23:22:21.161Z,15.63
2018-02-21T23:24:48.737Z,15.53
2018-02-21T23:27:16.355Z,14.67
2018-02-21T23:29:44.369Z,15.17
2018-02-21T23:32:11.936Z,14.07
2018-02-21T23:34:39.586Z,14.67
2018-02-21T23:37:07.362Z,12.60
2018-02-21T23:39:34.956Z,13.50
2018-02-21T23:42:02.657Z,12.57
2018-02-21T23:44:30.226Z,12.73
2018-02-21T23:46:58.173Z,12.83
2018-02-21T23:49:25.808Z,12.27
2018-02-21T23:51:53.434Z,12.70
2018-02-21T23:54:20.997Z,11.33
2018-02-21T23:56:48.622Z,11.33
2018-02-21T23:59:16.180Z,12.23
